sensor_id;sensor_type;location;lat;lon;timestamp;temperature;humidity
70269;DHT22;58514;48.398;-4.274;2023-02-15T00:01:20;9.70;85.00
70269;DHT22;58514;48.398;-4.274;2023-02-15T00:03:49;9.60;83.30
70269;DHT22;58514;48.398;-4.274;2023-02-15T00:06:15;9.70;83.40
70269;DHT22;58514;48.398;-4.274;2023-02-15T00:08:41;9.70;82.70
70269;DHT22;58514;48.398;-4.274;2023-02-15T00:11:10;9.70;82.30
70269;DHT22;58514;48.398;-4.274;2023-02-15T00:13:36;9.70;82.30
70269;DHT22;58514;48.398;-4.274;2023-02-15T00:16:04;9.70;82.80
70269;DHT22;58514;48.398;-4.274;2023-02-15T00:18:30;9.70;83.30
70269;DHT22;58514;48.398;-4.274;2023-02-15T00:20:56;9.70;83.90
70269;DHT22;58514;48.398;-4.274;2023-02-15T00:23:22;9.70;83.60
70269;DHT22;58514;48.398;-4.274;2023-02-15T00:25:47;9.60;83.70
70269;DHT22;58514;48.398;-4.274;2023-02-15T00:28:13;9.60;85.00
70269;DHT22;58514;48.398;-4.274;2023-02-15T00:30:38;9.60;86.30
70269;DHT22;58514;48.398;-4.274;2023-02-15T00:33:04;9.60;84.80
70269;DHT22;58514;48.398;-4.274;2023-02-15T00:35:29;9.60;86.20
70269;DHT22;58514;48.398;-4.274;2023-02-15T00:37:55;9.60;84.90
70269;DHT22;58514;48.398;-4.274;2023-02-15T00:40:21;9.60;84.40
70269;DHT22;58514;48.398;-4.274;2023-02-15T00:42:46;9.60;82.50
70269;DHT22;58514;48.398;-4.274;2023-02-15T00:45:12;9.60;82.40
70269;DHT22;58514;48.398;-4.274;2023-02-15T00:47:38;9.60;81.10
70269;DHT22;58514;48.398;-4.274;2023-02-15T00:50:03;9.60;81.00
70269;DHT22;58514;48.398;-4.274;2023-02-15T00:52:30;9.60;80.90
70269;DHT22;58514;48.398;-4.274;2023-02-15T00:54:56;9.60;82.00
70269;DHT22;58514;48.398;-4.274;2023-02-15T00:57:21;9.60;80.80
70269;DHT22;58514;48.398;-4.274;2023-02-15T00:59:47;9.60;81.10
70269;DHT22;58514;48.398;-4.274;2023-02-15T01:02:12;9.60;81.70
70269;DHT22;58514;48.398;-4.274;2023-02-15T01:04:38;9.60;83.10
70269;DHT22;58514;48.398;-4.274;2023-02-15T01:07:03;9.60;83.90
70269;DHT22;58514;48.398;-4.274;2023-02-15T01:09:29;9.60;85.30
70269;DHT22;58514;48.398;-4.274;2023-02-15T01:11:55;9.60;85.00
70269;DHT22;58514;48.398;-4.274;2023-02-15T01:14:20;9.60;85.90
70269;DHT22;58514;48.398;-4.274;2023-02-15T01:16:46;9.60;85.50
70269;DHT22;58514;48.398;-4.274;2023-02-15T01:19:11;9.60;84.80
70269;DHT22;58514;48.398;-4.274;2023-02-15T01:21:37;9.60;86.20
70269;DHT22;58514;48.398;-4.274;2023-02-15T01:24:03;9.60;86.30
70269;DHT22;58514;48.398;-4.274;2023-02-15T01:26:28;9.60;87.60
70269;DHT22;58514;48.398;-4.274;2023-02-15T01:28:54;9.60;86.90
70269;DHT22;58514;48.398;-4.274;2023-02-15T01:31:20;9.60;86.20
70269;DHT22;58514;48.398;-4.274;2023-02-15T01:33:46;9.60;86.50
70269;DHT22;58514;48.398;-4.274;2023-02-15T01:36:12;9.60;86.60
70269;DHT22;58514;48.398;-4.274;2023-02-15T01:38:37;9.60;86.70
70269;DHT22;58514;48.398;-4.274;2023-02-15T01:41:05;9.60;86.90
70269;DHT22;58514;48.398;-4.274;2023-02-15T01:43:49;9.50;87.80
70269;DHT22;58514;48.398;-4.274;2023-02-15T01:46:15;9.50;88.10
70269;DHT22;58514;48.398;-4.274;2023-02-15T01:48:43;9.50;88.10
70269;DHT22;58514;48.398;-4.274;2023-02-15T01:51:10;9.50;88.30
70269;DHT22;58514;48.398;-4.274;2023-02-15T01:53:43;9.50;88.70
70269;DHT22;58514;48.398;-4.274;2023-02-15T01:56:13;9.50;89.60
70269;DHT22;58514;48.398;-4.274;2023-02-15T01:58:40;9.50;89.20
70269;DHT22;58514;48.398;-4.274;2023-02-15T02:01:07;9.50;88.90
70269;DHT22;58514;48.398;-4.274;2023-02-15T02:03:39;9.50;88.90
70269;DHT22;58514;48.398;-4.274;2023-02-15T02:06:07;9.50;89.80
70269;DHT22;58514;48.398;-4.274;2023-02-15T02:08:32;9.50;89.60
70269;DHT22;58514;48.398;-4.274;2023-02-15T02:10:58;9.50;89.60
70269;DHT22;58514;48.398;-4.274;2023-02-15T02:13:23;9.50;89.20
70269;DHT22;58514;48.398;-4.274;2023-02-15T02:25:58;9.40;90.00
70269;DHT22;58514;48.398;-4.274;2023-02-15T02:39:07;9.40;90.10
70269;DHT22;58514;48.398;-4.274;2023-02-15T02:46:37;9.50;90.30
70269;DHT22;58514;48.398;-4.274;2023-02-15T02:49:04;9.50;90.30
70269;DHT22;58514;48.398;-4.274;2023-02-15T02:51:30;9.50;90.70
70269;DHT22;58514;48.398;-4.274;2023-02-15T02:53:56;9.50;90.40
70269;DHT22;58514;48.398;-4.274;2023-02-15T02:56:25;9.40;91.00
70269;DHT22;58514;48.398;-4.274;2023-02-15T02:58:57;9.40;90.90
70269;DHT22;58514;48.398;-4.274;2023-02-15T03:01:26;9.50;90.40
70269;DHT22;58514;48.398;-4.274;2023-02-15T03:03:53;9.40;90.80
70269;DHT22;58514;48.398;-4.274;2023-02-15T03:06:23;9.50;91.30
70269;DHT22;58514;48.398;-4.274;2023-02-15T03:08:53;9.40;91.00
70269;DHT22;58514;48.398;-4.274;2023-02-15T03:11:22;9.40;90.80
70269;DHT22;58514;48.398;-4.274;2023-02-15T03:13:48;9.40;90.50
70269;DHT22;58514;48.398;-4.274;2023-02-15T03:16:14;9.40;91.00
70269;DHT22;58514;48.398;-4.274;2023-02-15T03:21:50;9.40;91.00
70269;DHT22;58514;48.398;-4.274;2023-02-15T03:25:06;9.30;91.20
70269;DHT22;58514;48.398;-4.274;2023-02-15T03:27:13;9.30;91.20
70269;DHT22;58514;48.398;-4.274;2023-02-15T03:29:43;9.30;91.30
70269;DHT22;58514;48.398;-4.274;2023-02-15T03:32:09;9.30;91.00
70269;DHT22;58514;48.398;-4.274;2023-02-15T03:34:36;9.30;91.20
70269;DHT22;58514;48.398;-4.274;2023-02-15T03:39:53;9.30;91.70
70269;DHT22;58514;48.398;-4.274;2023-02-15T03:42:22;9.30;91.50
70269;DHT22;58514;48.398;-4.274;2023-02-15T03:47:16;9.20;91.00
70269;DHT22;58514;48.398;-4.274;2023-02-15T03:49:45;9.20;92.00
70269;DHT22;58514;48.398;-4.274;2023-02-15T03:52:12;9.20;91.50
70269;DHT22;58514;48.398;-4.274;2023-02-15T03:54:40;9.20;91.90
70269;DHT22;58514;48.398;-4.274;2023-02-15T03:57:11;9.20;91.60
70269;DHT22;58514;48.398;-4.274;2023-02-15T03:59:57;9.20;91.50
70269;DHT22;58514;48.398;-4.274;2023-02-15T04:02:52;9.20;91.50
70269;DHT22;58514;48.398;-4.274;2023-02-15T04:05:20;9.20;91.80
70269;DHT22;58514;48.398;-4.274;2023-02-15T04:07:46;9.20;92.30
70269;DHT22;58514;48.398;-4.274;2023-02-15T04:10:12;9.20;91.80
70269;DHT22;58514;48.398;-4.274;2023-02-15T04:12:56;9.10;91.30
70269;DHT22;58514;48.398;-4.274;2023-02-15T04:15:21;9.10;91.10
70269;DHT22;58514;48.398;-4.274;2023-02-15T04:18:05;9.10;91.70
70269;DHT22;58514;48.398;-4.274;2023-02-15T04:20:31;9.10;91.70
70269;DHT22;58514;48.398;-4.274;2023-02-15T04:23:15;9.20;91.90
70269;DHT22;58514;48.398;-4.274;2023-02-15T04:26:02;9.10;92.50
70269;DHT22;58514;48.398;-4.274;2023-02-15T04:28:28;9.10;92.20
70269;DHT22;58514;48.398;-4.274;2023-02-15T04:30:54;9.20;92.10
70269;DHT22;58514;48.398;-4.274;2023-02-15T04:33:19;9.20;92.20
70269;DHT22;58514;48.398;-4.274;2023-02-15T04:35:45;9.20;92.00
70269;DHT22;58514;48.398;-4.274;2023-02-15T04:38:10;9.20;92.40
70269;DHT22;58514;48.398;-4.274;2023-02-15T04:40:36;9.10;92.10
70269;DHT22;58514;48.398;-4.274;2023-02-15T04:43:01;9.10;91.80
70269;DHT22;58514;48.398;-4.274;2023-02-15T04:45:27;9.10;92.30
70269;DHT22;58514;48.398;-4.274;2023-02-15T04:47:53;9.20;92.30
70269;DHT22;58514;48.398;-4.274;2023-02-15T04:50:18;9.20;92.30
70269;DHT22;58514;48.398;-4.274;2023-02-15T04:52:44;9.10;92.70
70269;DHT22;58514;48.398;-4.274;2023-02-15T04:55:09;9.20;93.00
70269;DHT22;58514;48.398;-4.274;2023-02-15T04:57:35;9.20;92.90
70269;DHT22;58514;48.398;-4.274;2023-02-15T05:00:00;9.10;92.90
70269;DHT22;58514;48.398;-4.274;2023-02-15T05:02:26;9.10;92.80
70269;DHT22;58514;48.398;-4.274;2023-02-15T05:04:52;9.20;92.90
70269;DHT22;58514;48.398;-4.274;2023-02-15T05:07:17;9.20;92.60
70269;DHT22;58514;48.398;-4.274;2023-02-15T05:09:45;9.10;92.20
70269;DHT22;58514;48.398;-4.274;2023-02-15T05:12:11;9.10;92.30
70269;DHT22;58514;48.398;-4.274;2023-02-15T05:14:36;9.10;92.60
70269;DHT22;58514;48.398;-4.274;2023-02-15T05:17:02;9.10;92.60
70269;DHT22;58514;48.398;-4.274;2023-02-15T05:19:28;9.10;92.60
70269;DHT22;58514;48.398;-4.274;2023-02-15T05:21:54;9.00;93.10
70269;DHT22;58514;48.398;-4.274;2023-02-15T05:24:19;9.00;93.00
70269;DHT22;58514;48.398;-4.274;2023-02-15T05:27:03;9.00;93.30
70269;DHT22;58514;48.398;-4.274;2023-02-15T05:29:48;9.00;93.10
70269;DHT22;58514;48.398;-4.274;2023-02-15T05:32:13;9.00;92.90
70269;DHT22;58514;48.398;-4.274;2023-02-15T05:34:39;9.00;92.90
70269;DHT22;58514;48.398;-4.274;2023-02-15T05:37:05;9.00;93.30
70269;DHT22;58514;48.398;-4.274;2023-02-15T05:39:30;9.00;92.70
70269;DHT22;58514;48.398;-4.274;2023-02-15T05:41:58;8.90;93.30
70269;DHT22;58514;48.398;-4.274;2023-02-15T05:44:24;9.00;93.30
70269;DHT22;58514;48.398;-4.274;2023-02-15T05:46:49;9.00;92.40
70269;DHT22;58514;48.398;-4.274;2023-02-15T05:49:15;8.90;92.30
70269;DHT22;58514;48.398;-4.274;2023-02-15T05:51:40;8.90;93.30
70269;DHT22;58514;48.398;-4.274;2023-02-15T05:54:06;8.90;93.00
70269;DHT22;58514;48.398;-4.274;2023-02-15T05:56:31;8.90;93.10
70269;DHT22;58514;48.398;-4.274;2023-02-15T05:58:57;8.90;92.90
70269;DHT22;58514;48.398;-4.274;2023-02-15T06:01:23;8.90;93.10
70269;DHT22;58514;48.398;-4.274;2023-02-15T06:03:48;8.90;93.80
70269;DHT22;58514;48.398;-4.274;2023-02-15T06:06:14;8.90;93.20
70269;DHT22;58514;48.398;-4.274;2023-02-15T06:08:40;8.90;93.10
70269;DHT22;58514;48.398;-4.274;2023-02-15T06:11:06;8.90;93.40
70269;DHT22;58514;48.398;-4.274;2023-02-15T06:13:32;8.90;93.20
70269;DHT22;58514;48.398;-4.274;2023-02-15T06:15:58;8.80;93.10
70269;DHT22;58514;48.398;-4.274;2023-02-15T06:18:23;8.80;93.30
70269;DHT22;58514;48.398;-4.274;2023-02-15T06:20:49;8.80;93.20
70269;DHT22;58514;48.398;-4.274;2023-02-15T06:23:14;8.80;93.10
70269;DHT22;58514;48.398;-4.274;2023-02-15T06:25:40;8.70;93.20
70269;DHT22;58514;48.398;-4.274;2023-02-15T06:28:06;8.80;93.90
70269;DHT22;58514;48.398;-4.274;2023-02-15T06:30:32;8.80;93.10
70269;DHT22;58514;48.398;-4.274;2023-02-15T06:32:57;8.80;92.80
70269;DHT22;58514;48.398;-4.274;2023-02-15T06:35:23;8.80;92.80
70269;DHT22;58514;48.398;-4.274;2023-02-15T06:37:48;8.80;93.10
70269;DHT22;58514;48.398;-4.274;2023-02-15T06:40:14;8.70;92.80
70269;DHT22;58514;48.398;-4.274;2023-02-15T06:42:41;8.70;92.80
70269;DHT22;58514;48.398;-4.274;2023-02-15T06:45:06;8.70;93.50
70269;DHT22;58514;48.398;-4.274;2023-02-15T06:47:32;8.70;93.70
70269;DHT22;58514;48.398;-4.274;2023-02-15T06:49:57;8.70;93.60
70269;DHT22;58514;48.398;-4.274;2023-02-15T06:52:23;8.70;93.80
70269;DHT22;58514;48.398;-4.274;2023-02-15T06:54:49;8.70;93.60
70269;DHT22;58514;48.398;-4.274;2023-02-15T06:57:14;8.70;93.60
70269;DHT22;58514;48.398;-4.274;2023-02-15T06:59:40;8.70;93.30
70269;DHT22;58514;48.398;-4.274;2023-02-15T07:02:05;8.60;93.30
70269;DHT22;58514;48.398;-4.274;2023-02-15T07:04:31;8.60;93.90
70269;DHT22;58514;48.398;-4.274;2023-02-15T07:06:57;8.70;94.20
70269;DHT22;58514;48.398;-4.274;2023-02-15T07:09:22;8.60;93.60
70269;DHT22;58514;48.398;-4.274;2023-02-15T07:11:48;8.60;94.00
70269;DHT22;58514;48.398;-4.274;2023-02-15T07:14:32;8.60;94.10
70269;DHT22;58514;48.398;-4.274;2023-02-15T07:16:58;8.60;93.60
70269;DHT22;58514;48.398;-4.274;2023-02-15T07:19:24;8.60;93.90
70269;DHT22;58514;48.398;-4.274;2023-02-15T07:21:49;8.60;94.10
70269;DHT22;58514;48.398;-4.274;2023-02-15T07:24:15;8.60;94.60
70269;DHT22;58514;48.398;-4.274;2023-02-15T07:26:40;8.60;94.30
70269;DHT22;58514;48.398;-4.274;2023-02-15T07:29:06;8.60;94.30
70269;DHT22;58514;48.398;-4.274;2023-02-15T07:31:31;8.60;94.80
70269;DHT22;58514;48.398;-4.274;2023-02-15T07:33:57;8.60;94.80
70269;DHT22;58514;48.398;-4.274;2023-02-15T07:36:23;8.50;94.00
70269;DHT22;58514;48.398;-4.274;2023-02-15T07:38:48;8.60;94.30
70269;DHT22;58514;48.398;-4.274;2023-02-15T07:41:14;8.50;94.30
70269;DHT22;58514;48.398;-4.274;2023-02-15T07:43:41;8.50;94.60
70269;DHT22;58514;48.398;-4.274;2023-02-15T07:46:10;8.50;95.10
70269;DHT22;58514;48.398;-4.274;2023-02-15T07:48:37;8.50;95.20
70269;DHT22;58514;48.398;-4.274;2023-02-15T07:51:03;8.50;94.40
70269;DHT22;58514;48.398;-4.274;2023-02-15T07:53:29;8.50;95.30
70269;DHT22;58514;48.398;-4.274;2023-02-15T07:56:02;8.50;94.50
70269;DHT22;58514;48.398;-4.274;2023-02-15T07:58:28;8.50;94.70
70269;DHT22;58514;48.398;-4.274;2023-02-15T08:01:13;8.50;94.60
70269;DHT22;58514;48.398;-4.274;2023-02-15T08:03:39;8.50;94.20
70269;DHT22;58514;48.398;-4.274;2023-02-15T08:06:04;8.50;94.70
70269;DHT22;58514;48.398;-4.274;2023-02-15T08:08:30;8.60;95.30
70269;DHT22;58514;48.398;-4.274;2023-02-15T08:10:59;8.60;94.80
70269;DHT22;58514;48.398;-4.274;2023-02-15T08:13:44;8.60;94.90
70269;DHT22;58514;48.398;-4.274;2023-02-15T08:19:08;8.60;94.40
70269;DHT22;58514;48.398;-4.274;2023-02-15T08:21:34;8.60;94.50
70269;DHT22;58514;48.398;-4.274;2023-02-15T08:24:00;8.70;94.60
70269;DHT22;58514;48.398;-4.274;2023-02-15T08:26:26;8.70;94.80
70269;DHT22;58514;48.398;-4.274;2023-02-15T08:28:53;8.70;94.60
70269;DHT22;58514;48.398;-4.274;2023-02-15T08:31:19;8.80;94.70
70269;DHT22;58514;48.398;-4.274;2023-02-15T08:33:45;8.80;94.70
70269;DHT22;58514;48.398;-4.274;2023-02-15T08:36:12;8.80;95.30
70269;DHT22;58514;48.398;-4.274;2023-02-15T08:38:39;8.90;95.70
70269;DHT22;58514;48.398;-4.274;2023-02-15T08:41:10;8.90;96.60
70269;DHT22;58514;48.398;-4.274;2023-02-15T08:43:36;9.00;96.00
70269;DHT22;58514;48.398;-4.274;2023-02-15T08:46:02;9.10;96.40
70269;DHT22;58514;48.398;-4.274;2023-02-15T08:48:28;9.20;96.20
70269;DHT22;58514;48.398;-4.274;2023-02-15T08:50:53;9.30;97.90
70269;DHT22;58514;48.398;-4.274;2023-02-15T08:53:19;9.60;98.50
70269;DHT22;58514;48.398;-4.274;2023-02-15T08:55:47;9.80;99.40
70269;DHT22;58514;48.398;-4.274;2023-02-15T08:58:12;10.10;99.80
70269;DHT22;58514;48.398;-4.274;2023-02-15T09:00:38;10.40;99.90
70269;DHT22;58514;48.398;-4.274;2023-02-15T09:03:03;10.70;99.90
70269;DHT22;58514;48.398;-4.274;2023-02-15T09:05:29;11.00;99.90
70269;DHT22;58514;48.398;-4.274;2023-02-15T09:07:55;11.20;99.90
70269;DHT22;58514;48.398;-4.274;2023-02-15T09:10:20;11.60;99.90
70269;DHT22;58514;48.398;-4.274;2023-02-15T09:12:46;11.80;99.80
70269;DHT22;58514;48.398;-4.274;2023-02-15T09:15:11;11.90;97.70
70269;DHT22;58514;48.398;-4.274;2023-02-15T09:17:37;12.00;96.70
70269;DHT22;58514;48.398;-4.274;2023-02-15T09:20:02;12.10;95.50
70269;DHT22;58514;48.398;-4.274;2023-02-15T09:22:28;12.20;95.60
70269;DHT22;58514;48.398;-4.274;2023-02-15T09:24:56;12.30;95.40
70269;DHT22;58514;48.398;-4.274;2023-02-15T09:27:21;12.40;95.90
70269;DHT22;58514;48.398;-4.274;2023-02-15T09:29:47;12.60;96.50
70269;DHT22;58514;48.398;-4.274;2023-02-15T09:32:15;12.70;96.20
70269;DHT22;58514;48.398;-4.274;2023-02-15T09:34:42;12.80;95.80
70269;DHT22;58514;48.398;-4.274;2023-02-15T09:37:08;12.90;95.50
70269;DHT22;58514;48.398;-4.274;2023-02-15T09:39:33;12.90;94.80
70269;DHT22;58514;48.398;-4.274;2023-02-15T09:57:49;13.40;93.20
70269;DHT22;58514;48.398;-4.274;2023-02-15T10:07:58;14.00;94.30
70269;DHT22;58514;48.398;-4.274;2023-02-15T10:15:53;14.60;97.30
70269;DHT22;58514;48.398;-4.274;2023-02-15T10:23:39;15.60;99.90
70269;DHT22;58514;48.398;-4.274;2023-02-15T10:36:29;16.80;94.70
70269;DHT22;58514;48.398;-4.274;2023-02-15T10:44:08;17.10;95.70
70269;DHT22;58514;48.398;-4.274;2023-02-15T10:46:48;17.40;94.00
70269;DHT22;58514;48.398;-4.274;2023-02-15T10:51:54;17.80;94.30
70269;DHT22;58514;48.398;-4.274;2023-02-15T10:54:31;17.90;94.90
70269;DHT22;58514;48.398;-4.274;2023-02-15T10:57:04;18.20;93.00
70269;DHT22;58514;48.398;-4.274;2023-02-15T11:07:35;19.00;91.60
70269;DHT22;58514;48.398;-4.274;2023-02-15T11:12:44;19.50;92.60
70269;DHT22;58514;48.398;-4.274;2023-02-15T11:15:15;19.80;88.40
70269;DHT22;58514;48.398;-4.274;2023-02-15T11:17:45;20.00;88.70
70269;DHT22;58514;48.398;-4.274;2023-02-15T11:20:25;20.10;80.80
70269;DHT22;58514;48.398;-4.274;2023-02-15T11:22:52;20.00;78.30
70269;DHT22;58514;48.398;-4.274;2023-02-15T11:25:25;20.10;83.10
70269;DHT22;58514;48.398;-4.274;2023-02-15T11:27:53;20.30;76.80
70269;DHT22;58514;48.398;-4.274;2023-02-15T11:30:20;20.40;76.20
70269;DHT22;58514;48.398;-4.274;2023-02-15T11:32:47;20.50;76.70
70269;DHT22;58514;48.398;-4.274;2023-02-15T11:35:20;20.60;76.30
70269;DHT22;58514;48.398;-4.274;2023-02-15T11:42:45;20.10;72.60
70269;DHT22;58514;48.398;-4.274;2023-02-15T11:47:43;19.70;77.30
70269;DHT22;58514;48.398;-4.274;2023-02-15T11:50:12;19.70;75.40
70269;DHT22;58514;48.398;-4.274;2023-02-15T11:52:38;19.60;76.80
70269;DHT22;58514;48.398;-4.274;2023-02-15T11:55:09;19.70;77.20
70269;DHT22;58514;48.398;-4.274;2023-02-15T11:57:38;19.80;78.00
70269;DHT22;58514;48.398;-4.274;2023-02-15T12:00:10;20.10;75.90
70269;DHT22;58514;48.398;-4.274;2023-02-15T12:02:39;20.30;78.80
70269;DHT22;58514;48.398;-4.274;2023-02-15T12:05:13;20.60;79.40
70269;DHT22;58514;48.398;-4.274;2023-02-15T12:07:42;21.00;78.10
70269;DHT22;58514;48.398;-4.274;2023-02-15T12:12:39;21.60;77.90
70269;DHT22;58514;48.398;-4.274;2023-02-15T12:15:06;21.70;78.30
70269;DHT22;58514;48.398;-4.274;2023-02-15T12:17:37;21.80;73.20
70269;DHT22;58514;48.398;-4.274;2023-02-15T12:20:05;21.80;72.00
70269;DHT22;58514;48.398;-4.274;2023-02-15T12:22:33;21.90;69.00
70269;DHT22;58514;48.398;-4.274;2023-02-15T12:25:01;21.70;68.60
70269;DHT22;58514;48.398;-4.274;2023-02-15T12:27:28;21.70;66.60
70269;DHT22;58514;48.398;-4.274;2023-02-15T12:29:56;21.70;67.40
70269;DHT22;58514;48.398;-4.274;2023-02-15T12:32:24;21.70;68.90
70269;DHT22;58514;48.398;-4.274;2023-02-15T12:34:51;21.60;70.00
70269;DHT22;58514;48.398;-4.274;2023-02-15T12:37:22;21.80;66.10
70269;DHT22;58514;48.398;-4.274;2023-02-15T12:39:58;21.70;64.90
70269;DHT22;58514;48.398;-4.274;2023-02-15T12:42:25;21.50;67.30
70269;DHT22;58514;48.398;-4.274;2023-02-15T12:44:55;21.50;66.20
70269;DHT22;58514;48.398;-4.274;2023-02-15T12:47:21;21.20;59.80
70269;DHT22;58514;48.398;-4.274;2023-02-15T12:52:29;20.20;59.60
70269;DHT22;58514;48.398;-4.274;2023-02-15T12:54:55;19.60;62.10
70269;DHT22;58514;48.398;-4.274;2023-02-15T12:57:34;19.40;65.50
70269;DHT22;58514;48.398;-4.274;2023-02-15T13:00:02;19.20;65.90
70269;DHT22;58514;48.398;-4.274;2023-02-15T13:04:54;19.00;64.60
70269;DHT22;58514;48.398;-4.274;2023-02-15T13:07:20;18.90;67.20
70269;DHT22;58514;48.398;-4.274;2023-02-15T13:09:46;18.90;68.10
70269;DHT22;58514;48.398;-4.274;2023-02-15T13:12:20;18.90;67.90
70269;DHT22;58514;48.398;-4.274;2023-02-15T13:14:47;18.90;67.60
70269;DHT22;58514;48.398;-4.274;2023-02-15T13:17:16;18.90;67.90
70269;DHT22;58514;48.398;-4.274;2023-02-15T13:19:52;18.90;67.20
70269;DHT22;58514;48.398;-4.274;2023-02-15T13:22:41;19.00;67.90
70269;DHT22;58514;48.398;-4.274;2023-02-15T13:25:17;19.00;66.50
70269;DHT22;58514;48.398;-4.274;2023-02-15T13:27:44;18.90;67.30
70269;DHT22;58514;48.398;-4.274;2023-02-15T13:30:18;18.90;68.10
70269;DHT22;58514;48.398;-4.274;2023-02-15T13:32:45;19.00;67.80
70269;DHT22;58514;48.398;-4.274;2023-02-15T13:35:14;18.90;66.60
70269;DHT22;58514;48.398;-4.274;2023-02-15T13:40:18;19.00;67.80
70269;DHT22;58514;48.398;-4.274;2023-02-15T13:53:27;18.70;67.20
70269;DHT22;58514;48.398;-4.274;2023-02-15T14:01:08;18.50;66.30
70269;DHT22;58514;48.398;-4.274;2023-02-15T14:21:52;17.80;68.80
70269;DHT22;58514;48.398;-4.274;2023-02-15T14:24:42;17.80;68.10
70269;DHT22;58514;48.398;-4.274;2023-02-15T14:29:52;17.70;68.50
70269;DHT22;58514;48.398;-4.274;2023-02-15T14:32:33;17.70;68.50
70269;DHT22;58514;48.398;-4.274;2023-02-15T14:35:02;17.70;68.10
70269;DHT22;58514;48.398;-4.274;2023-02-15T14:41:15;17.50;68.00
70269;DHT22;58514;48.398;-4.274;2023-02-15T14:46:03;17.40;68.30
70269;DHT22;58514;48.398;-4.274;2023-02-15T14:48:33;17.40;68.30
70269;DHT22;58514;48.398;-4.274;2023-02-15T14:51:03;17.20;68.20
70269;DHT22;58514;48.398;-4.274;2023-02-15T15:03:53;17.00;69.10
70269;DHT22;58514;48.398;-4.274;2023-02-15T15:06:26;17.00;69.10
70269;DHT22;58514;48.398;-4.274;2023-02-15T15:08:53;17.00;69.30
70269;DHT22;58514;48.398;-4.274;2023-02-15T15:13:55;16.80;69.30
70269;DHT22;58514;48.398;-4.274;2023-02-15T15:16:27;16.80;69.70
70269;DHT22;58514;48.398;-4.274;2023-02-15T15:18:53;16.60;69.20
70269;DHT22;58514;48.398;-4.274;2023-02-15T15:24:04;16.40;70.60
70269;DHT22;58514;48.398;-4.274;2023-02-15T15:26:31;16.30;70.40
70269;DHT22;58514;48.398;-4.274;2023-02-15T15:29:06;16.20;70.30
70269;DHT22;58514;48.398;-4.274;2023-02-15T15:32:14;16.10;71.40
70269;DHT22;58514;48.398;-4.274;2023-02-15T15:37:03;15.90;71.40
70269;DHT22;58514;48.398;-4.274;2023-02-15T15:50:18;15.60;71.40
70269;DHT22;58514;48.398;-4.274;2023-02-15T15:52:46;15.50;70.90
70269;DHT22;58514;48.398;-4.274;2023-02-15T15:55:22;15.40;70.50
70269;DHT22;58514;48.398;-4.274;2023-02-15T15:57:49;15.30;70.60
70269;DHT22;58514;48.398;-4.274;2023-02-15T16:02:54;15.20;71.60
70269;DHT22;58514;48.398;-4.274;2023-02-15T16:05:21;15.10;71.20
70269;DHT22;58514;48.398;-4.274;2023-02-15T16:07:46;15.00;71.20
70269;DHT22;58514;48.398;-4.274;2023-02-15T16:10:23;15.00;72.10
70269;DHT22;58514;48.398;-4.274;2023-02-15T16:12:50;14.90;73.10
70269;DHT22;58514;48.398;-4.274;2023-02-15T16:15:18;14.80;71.70
70269;DHT22;58514;48.398;-4.274;2023-02-15T16:17:44;14.80;71.60
70269;DHT22;58514;48.398;-4.274;2023-02-15T16:22:47;14.70;72.00
70269;DHT22;58514;48.398;-4.274;2023-02-15T16:25:25;14.70;73.70
70269;DHT22;58514;48.398;-4.274;2023-02-15T16:27:52;14.70;73.00
70269;DHT22;58514;48.398;-4.274;2023-02-15T16:30:22;14.70;72.70
70269;DHT22;58514;48.398;-4.274;2023-02-15T16:32:48;14.70;72.90
70269;DHT22;58514;48.398;-4.274;2023-02-15T16:35:15;14.70;74.10
70269;DHT22;58514;48.398;-4.274;2023-02-15T16:37:41;14.60;73.30
70269;DHT22;58514;48.398;-4.274;2023-02-15T16:40:14;14.60;73.60
70269;DHT22;58514;48.398;-4.274;2023-02-15T16:42:54;14.50;73.10
70269;DHT22;58514;48.398;-4.274;2023-02-15T16:45:21;14.50;74.00
70269;DHT22;58514;48.398;-4.274;2023-02-15T16:47:49;14.40;73.70
70269;DHT22;58514;48.398;-4.274;2023-02-15T16:50:34;14.40;73.50
70269;DHT22;58514;48.398;-4.274;2023-02-15T16:53:01;14.40;75.60
70269;DHT22;58514;48.398;-4.274;2023-02-15T16:55:28;14.30;73.80
70269;DHT22;58514;48.398;-4.274;2023-02-15T16:57:56;14.30;73.70
70269;DHT22;58514;48.398;-4.274;2023-02-15T17:00:28;14.30;74.40
70269;DHT22;58514;48.398;-4.274;2023-02-15T17:02:59;14.30;74.30
70269;DHT22;58514;48.398;-4.274;2023-02-15T17:05:45;14.20;75.20
70269;DHT22;58514;48.398;-4.274;2023-02-15T17:13:24;14.10;75.90
70269;DHT22;58514;48.398;-4.274;2023-02-15T17:18:29;14.00;76.80
70269;DHT22;58514;48.398;-4.274;2023-02-15T17:20:56;14.00;78.40
70269;DHT22;58514;48.398;-4.274;2023-02-15T17:25:51;13.90;78.30
70269;DHT22;58514;48.398;-4.274;2023-02-15T17:28:18;13.80;77.40
70269;DHT22;58514;48.398;-4.274;2023-02-15T17:30:44;13.80;77.20
70269;DHT22;58514;48.398;-4.274;2023-02-15T17:33:45;13.70;78.40
70269;DHT22;58514;48.398;-4.274;2023-02-15T17:38:34;13.60;77.80
70269;DHT22;58514;48.398;-4.274;2023-02-15T17:41:00;13.60;77.10
70269;DHT22;58514;48.398;-4.274;2023-02-15T17:43:25;13.50;78.80
70269;DHT22;58514;48.398;-4.274;2023-02-15T17:45:51;13.50;78.10
70269;DHT22;58514;48.398;-4.274;2023-02-15T17:48:36;13.50;78.10
70269;DHT22;58514;48.398;-4.274;2023-02-15T17:51:03;13.40;79.30
70269;DHT22;58514;48.398;-4.274;2023-02-15T17:53:29;13.50;78.30
70269;DHT22;58514;48.398;-4.274;2023-02-15T17:55:54;13.50;78.20
70269;DHT22;58514;48.398;-4.274;2023-02-15T17:58:20;13.50;78.40
70269;DHT22;58514;48.398;-4.274;2023-02-15T18:00:50;13.50;78.90
70269;DHT22;58514;48.398;-4.274;2023-02-15T18:03:39;13.50;80.00
70269;DHT22;58514;48.398;-4.274;2023-02-15T18:06:23;13.50;80.80
70269;DHT22;58514;48.398;-4.274;2023-02-15T18:09:12;13.40;80.60
70269;DHT22;58514;48.398;-4.274;2023-02-15T18:11:57;13.40;80.40
70269;DHT22;58514;48.398;-4.274;2023-02-15T18:14:23;13.40;80.20
70269;DHT22;58514;48.398;-4.274;2023-02-15T18:16:48;13.40;81.10
70269;DHT22;58514;48.398;-4.274;2023-02-15T18:19:18;13.30;80.60
70269;DHT22;58514;48.398;-4.274;2023-02-15T18:21:45;13.30;81.00
70269;DHT22;58514;48.398;-4.274;2023-02-15T18:24:14;13.30;80.70
70269;DHT22;58514;48.398;-4.274;2023-02-15T18:26:41;13.40;80.30
70269;DHT22;58514;48.398;-4.274;2023-02-15T18:29:06;13.40;80.70
70269;DHT22;58514;48.398;-4.274;2023-02-15T18:31:33;13.40;80.60
70269;DHT22;58514;48.398;-4.274;2023-02-15T18:33:58;13.40;81.80
70269;DHT22;58514;48.398;-4.274;2023-02-15T18:36:26;13.40;81.20
70269;DHT22;58514;48.398;-4.274;2023-02-15T18:38:52;13.40;82.20
70269;DHT22;58514;48.398;-4.274;2023-02-15T18:41:19;13.40;83.20
70269;DHT22;58514;48.398;-4.274;2023-02-15T18:43:45;13.30;83.20
70269;DHT22;58514;48.398;-4.274;2023-02-15T18:46:11;13.30;84.00
70269;DHT22;58514;48.398;-4.274;2023-02-15T18:48:37;13.30;82.40
70269;DHT22;58514;48.398;-4.274;2023-02-15T18:51:03;13.20;82.30
70269;DHT22;58514;48.398;-4.274;2023-02-15T18:53:29;13.30;83.50
70269;DHT22;58514;48.398;-4.274;2023-02-15T18:55:55;13.30;82.30
70269;DHT22;58514;48.398;-4.274;2023-02-15T18:58:21;13.30;83.50
70269;DHT22;58514;48.398;-4.274;2023-02-15T19:00:48;13.20;84.60